createdAt,value
2023-01-02T00:02:07.403Z,202.60
2023-01-02T00:04:34.076Z,181.98
2023-01-02T00:09:30.384Z,162.30
2023-01-02T00:11:57.183Z,168.23
2023-01-02T00:14:23.818Z,161.10
2023-01-02T00:16:50.482Z,178.70
2023-01-02T00:19:17.065Z,156.35
2023-01-02T00:21:43.812Z,109.60
2023-01-02T00:24:10.583Z,127.22
2023-01-02T00:26:37.229Z,235.20
2023-01-02T00:29:03.843Z,181.40
2023-01-02T00:31:30.724Z,123.60
2023-01-02T00:33:57.452Z,137.52
2023-01-02T00:36:24.242Z,372.08
2023-01-02T00:38:53.910Z,576.58
2023-01-02T00:41:21.481Z,402.77
2023-01-02T00:43:48.087Z,115.00
2023-01-02T00:46:15.914Z,127.63
2023-01-02T00:48:44.182Z,166.30
2023-01-02T00:51:10.924Z,181.55
2023-01-02T00:55:50.141Z,114.57
2023-01-02T00:58:20.089Z,104.10
2023-01-02T01:00:46.816Z,195.38
2023-01-02T01:05:44.525Z,159.95
2023-01-02T01:08:11.380Z,202.00
2023-01-02T01:10:38.379Z,222.55
2023-01-02T01:13:05.813Z,224.45
2023-01-02T01:15:33.499Z,179.68
2023-01-02T01:18:00.598Z,157.93
2023-01-02T01:20:27.421Z,181.18
2023-01-02T01:22:54.180Z,152.68
2023-01-02T01:25:21.037Z,153.30
2023-01-02T01:27:47.921Z,157.43
2023-01-02T01:30:14.582Z,134.98
2023-01-02T01:32:41.244Z,154.82
2023-01-02T01:35:08.254Z,138.48
2023-01-02T01:37:34.946Z,188.50
2023-01-02T01:40:01.538Z,152.85
2023-01-02T01:42:35.080Z,157.00
2023-01-02T01:45:02.626Z,141.50
2023-01-02T01:47:49.692Z,162.52
2023-01-02T01:50:28.855Z,152.65
2023-01-02T01:53:03.499Z,222.40
2023-01-02T01:55:35.308Z,182.23
2023-01-02T01:58:12.082Z,178.00
2023-01-02T02:00:41.697Z,170.85
2023-01-02T02:03:12.613Z,176.60
2023-01-02T02:05:41.041Z,159.82
2023-01-02T02:08:15.884Z,154.10
2023-01-02T02:10:43.213Z,182.75
2023-01-02T02:13:10.228Z,217.57
2023-01-02T02:15:53.002Z,231.82
2023-01-02T02:18:32.577Z,225.07
2023-01-02T02:21:21.481Z,236.32
2023-01-02T02:24:17.220Z,242.82
2023-01-02T02:26:55.917Z,333.52
2023-01-02T02:30:00.614Z,200.90
2023-01-02T02:32:45.872Z,198.30
2023-01-02T02:35:49.354Z,216.20
2023-01-02T02:38:37.759Z,188.63
2023-01-02T02:41:26.291Z,167.48
2023-01-02T02:44:15.891Z,173.82
2023-01-02T02:47:00.718Z,194.32
2023-01-02T02:49:47.382Z,177.02
2023-01-02T02:52:25.811Z,177.93
2023-01-02T02:55:17.095Z,172.98
2023-01-02T02:57:45.943Z,178.75
2023-01-02T03:00:15.206Z,177.10
2023-01-02T03:02:41.921Z,184.15
2023-01-02T03:05:14.699Z,189.75
2023-01-02T03:08:12.726Z,195.82
2023-01-02T03:10:49.766Z,200.57
2023-01-02T03:13:41.492Z,198.70
2023-01-02T03:16:23.802Z,208.23
2023-01-02T03:18:54.464Z,189.97
2023-01-02T03:21:39.736Z,174.70
2023-01-02T03:24:10.710Z,171.05
2023-01-02T03:26:42.482Z,165.18
2023-01-02T03:29:15.772Z,197.13
2023-01-02T03:31:46.990Z,188.70
2023-01-02T03:34:17.402Z,158.63
2023-01-02T03:36:49.385Z,160.70
2023-01-02T03:39:23.227Z,182.30
2023-01-02T03:44:17.458Z,195.05
2023-01-02T03:46:50.710Z,205.13
2023-01-02T03:49:29.921Z,213.02
2023-01-02T03:51:56.666Z,215.02
2023-01-02T03:54:23.450Z,174.75
2023-01-02T03:57:12.677Z,177.77
2023-01-02T03:59:49.550Z,159.70
2023-01-02T04:02:44.080Z,182.18
2023-01-02T04:05:29.146Z,197.60
2023-01-02T04:08:03.662Z,173.15
2023-01-02T04:10:31.808Z,176.30
2023-01-02T04:13:04.095Z,180.77
2023-01-02T04:15:34.564Z,169.77
2023-01-02T04:18:10.066Z,167.98
2023-01-02T04:20:42.017Z,158.75
2023-01-02T04:23:13.612Z,202.15
2023-01-02T04:26:11.789Z,254.23
2023-01-02T04:31:11.923Z,223.48
2023-01-02T04:33:45.178Z,186.73
2023-01-02T04:36:14.698Z,253.93
2023-01-02T04:38:45.441Z,200.07
2023-01-02T04:41:27.110Z,215.50
2023-01-02T04:43:57.216Z,403.27
2023-01-02T04:48:37.757Z,205.35
2023-01-02T04:51:04.425Z,164.32
2023-01-02T04:53:31.003Z,180.30
2023-01-02T04:55:57.995Z,172.93
2023-01-02T04:58:26.762Z,157.02
2023-01-02T05:03:20.711Z,340.60
2023-01-02T05:05:47.466Z,557.63
2023-01-02T05:08:16.376Z,483.63
2023-01-02T05:10:43.414Z,541.13
2023-01-02T05:13:09.981Z,469.23
2023-01-02T05:15:36.727Z,312.23
2023-01-02T05:20:17.859Z,278.08
2023-01-02T05:23:03.226Z,265.77
2023-01-02T05:25:35.024Z,252.02
2023-01-02T05:28:03.451Z,213.90
2023-01-02T05:30:30.142Z,260.42
2023-01-02T05:32:56.771Z,274.10
2023-01-02T05:35:28.521Z,272.30
2023-01-02T05:37:58.986Z,247.63
2023-01-02T05:40:25.528Z,230.15
2023-01-02T05:42:52.110Z,217.20
2023-01-02T05:45:18.700Z,186.63
2023-01-02T05:47:45.314Z,169.57
2023-01-02T05:50:11.958Z,190.82
2023-01-02T05:52:45.219Z,215.95
2023-01-02T05:55:13.113Z,264.58
2023-01-02T05:57:41.800Z,260.23
2023-01-02T06:00:08.961Z,277.27
2023-01-02T06:02:41.097Z,282.40
2023-01-02T06:05:11.019Z,305.40
2023-01-02T06:07:37.545Z,263.42
2023-01-02T06:12:25.213Z,291.40
2023-01-02T06:14:51.841Z,260.63
2023-01-02T06:17:18.336Z,316.95
2023-01-02T06:19:51.900Z,284.98
2023-01-02T06:22:20.618Z,339.25
2023-01-02T06:24:47.321Z,251.55
2023-01-02T06:27:13.984Z,259.13
2023-01-02T06:29:40.580Z,243.15
2023-01-02T06:32:07.416Z,230.57
2023-01-02T06:34:34.022Z,187.55
2023-01-02T06:37:04.598Z,157.35
2023-01-02T06:39:36.076Z,222.30
2023-01-02T06:42:02.684Z,251.57
2023-01-02T06:44:29.258Z,276.85
2023-01-02T06:46:55.799Z,317.92
2023-01-02T06:49:22.375Z,293.67
2023-01-02T06:51:49.016Z,332.90
2023-01-02T06:54:15.630Z,350.40
2023-01-02T06:56:42.215Z,414.20
2023-01-02T06:59:09.833Z,374.90
2023-01-02T07:01:36.673Z,368.80
2023-01-02T07:04:03.385Z,351.05
2023-01-02T07:06:29.986Z,363.27
2023-01-02T07:08:56.791Z,373.33
2023-01-02T07:11:25.173Z,353.27
2023-01-02T07:13:53.811Z,377.98
2023-01-02T07:16:21.967Z,353.52
2023-01-02T07:18:48.933Z,328.92
2023-01-02T07:21:18.260Z,334.95
2023-01-02T07:23:45.235Z,495.63
2023-01-02T07:26:12.688Z,260.65
2023-01-02T07:28:39.987Z,249.93
2023-01-02T07:31:17.643Z,382.08
2023-01-02T07:33:44.703Z,627.08
2023-01-02T07:36:14.665Z,641.20
2023-01-02T07:38:41.623Z,590.08
2023-01-02T07:41:16.459Z,582.05
2023-01-02T07:43:44.643Z,579.53
2023-01-02T07:46:12.862Z,571.65
2023-01-02T07:48:39.597Z,499.15
2023-01-02T07:51:07.432Z,522.40
2023-01-02T07:53:35.276Z,519.45
2023-01-02T07:56:02.534Z,500.73
2023-01-02T07:58:29.525Z,523.50
2023-01-02T08:01:03.224Z,537.45
2023-01-02T08:03:32.809Z,443.55
2023-01-02T08:06:11.413Z,470.10
2023-01-02T08:08:41.395Z,335.25
2023-01-02T08:11:13.471Z,298.73
2023-01-02T08:13:40.442Z,290.05
2023-01-02T08:16:09.868Z,276.98
2023-01-02T08:18:36.866Z,259.15
2023-01-02T08:21:04.810Z,285.95
2023-01-02T08:23:32.484Z,260.83
2023-01-02T08:26:00.716Z,256.08
2023-01-02T08:28:28.108Z,269.10
2023-01-02T08:30:55.060Z,262.33
2023-01-02T08:33:22.047Z,254.82
2023-01-02T08:35:48.878Z,258.38
2023-01-02T08:38:15.594Z,276.65
2023-01-02T08:40:42.230Z,249.32
2023-01-02T08:43:49.092Z,262.08
2023-01-02T08:46:15.762Z,251.23
2023-01-02T08:48:42.362Z,249.30
2023-01-02T08:51:09.962Z,233.10
2023-01-02T08:53:36.499Z,273.98
2023-01-02T08:56:27.471Z,266.90
2023-01-02T08:58:56.813Z,312.55
2023-01-02T09:01:25.814Z,300.58
2023-01-02T09:03:53.383Z,266.83
2023-01-02T09:06:22.376Z,281.75
2023-01-02T09:11:16.227Z,268.42
2023-01-02T09:13:43.751Z,279.48
2023-01-02T09:16:10.675Z,293.42
2023-01-02T09:18:38.599Z,330.15
2023-01-02T09:21:05.878Z,329.95
2023-01-02T09:23:33.480Z,335.80
2023-01-02T09:26:02.800Z,334.35
2023-01-02T09:28:32.078Z,303.80
2023-01-02T09:30:58.806Z,328.50
2023-01-02T09:33:25.582Z,334.27
2023-01-02T09:35:52.162Z,315.35
2023-01-02T09:38:18.760Z,320.23
2023-01-02T09:40:52.478Z,307.80
2023-01-02T09:43:29.485Z,301.35
2023-01-02T09:46:03.090Z,308.13
2023-01-02T09:48:36.571Z,350.67
2023-01-02T09:51:07.808Z,318.10
2023-01-02T09:53:35.229Z,295.33
2023-01-02T09:56:12.030Z,271.15
2023-01-02T09:58:50.129Z,250.30
2023-01-02T10:01:43.460Z,242.00
2023-01-02T10:04:24.120Z,296.20
2023-01-02T10:07:11.337Z,326.58
2023-01-02T10:09:58.613Z,282.63
2023-01-02T10:12:36.316Z,251.40
2023-01-02T10:15:07.089Z,255.40
2023-01-02T10:17:42.547Z,220.30
2023-01-02T10:20:24.222Z,218.85
2023-01-02T10:22:57.200Z,219.52
2023-01-02T10:25:27.163Z,217.48
2023-01-02T10:28:14.976Z,228.80
2023-01-02T10:30:48.312Z,214.95
2023-01-02T10:33:22.100Z,210.77
2023-01-02T10:36:00.094Z,195.75
2023-01-02T10:38:36.000Z,195.70
2023-01-02T10:41:03.313Z,205.55
2023-01-02T10:43:32.296Z,204.70
2023-01-02T10:46:01.068Z,184.85
2023-01-02T10:48:33.613Z,179.45
2023-01-02T10:51:07.194Z,120.30
2023-01-02T10:53:37.281Z,86.15
2023-01-02T10:56:07.759Z,140.52
2023-01-02T11:01:18.664Z,125.43
2023-01-02T11:04:09.936Z,89.40
2023-01-02T11:06:49.687Z,86.75
2023-01-02T11:09:25.223Z,94.78
2023-01-02T11:12:08.357Z,111.55
2023-01-02T11:14:36.756Z,87.72
2023-01-02T11:17:20.865Z,71.35
2023-01-02T11:19:50.482Z,76.40
2023-01-02T11:22:20.530Z,69.50
2023-01-02T11:24:59.658Z,77.13
2023-01-02T11:27:32.900Z,61.20
2023-01-02T11:30:00.900Z,61.53
2023-01-02T11:32:38.712Z,58.33
2023-01-02T11:35:06.553Z,56.17
2023-01-02T11:37:34.098Z,55.13
2023-01-02T11:40:24.350Z,53.53
2023-01-02T11:43:11.457Z,55.15
2023-01-02T11:45:39.070Z,69.07
2023-01-02T11:48:12.620Z,47.80
2023-01-02T11:53:12.617Z,37.15
2023-01-02T11:56:07.472Z,39.85
2023-01-02T11:58:46.990Z,41.13
2023-01-02T12:01:24.763Z,51.03
2023-01-02T12:03:51.591Z,34.08
2023-01-02T12:06:24.128Z,29.20
2023-01-02T12:09:02.667Z,29.52
2023-01-02T12:11:47.857Z,26.58
2023-01-02T12:14:18.643Z,29.80
2023-01-02T12:16:51.970Z,25.33
2023-01-02T12:19:49.302Z,22.50
2023-01-02T12:22:24.981Z,24.75
2023-01-02T12:24:57.274Z,35.35
2023-01-02T12:27:32.777Z,51.10
2023-01-02T12:30:32.800Z,50.88
2023-01-02T12:33:05.027Z,43.70
2023-01-02T12:38:10.950Z,44.70
2023-01-02T12:40:40.306Z,41.13
2023-01-02T12:43:48.323Z,31.27
2023-01-02T12:46:36.051Z,39.00
2023-01-02T12:49:15.389Z,35.22
2023-01-02T12:52:06.859Z,32.00
2023-01-02T12:54:57.846Z,29.42
2023-01-02T12:57:46.955Z,22.02
2023-01-02T13:00:35.469Z,25.40
2023-01-02T13:03:36.310Z,21.10
2023-01-02T13:06:44.928Z,27.10
2023-01-02T13:09:42.664Z,35.50
2023-01-02T13:12:29.467Z,29.08
2023-01-02T13:15:01.025Z,21.77
2023-01-02T13:17:40.107Z,21.88
2023-01-02T13:20:15.916Z,15.20
2023-01-02T13:22:55.804Z,23.20
2023-01-02T13:25:26.502Z,25.70
2023-01-02T13:27:56.290Z,29.88
2023-01-02T13:30:35.480Z,21.20
2023-01-02T13:35:36.708Z,20.70
2023-01-02T13:38:07.299Z,30.33
2023-01-02T13:40:34.849Z,23.15
2023-01-02T13:43:06.199Z,24.42
2023-01-02T13:45:46.460Z,25.05
2023-01-02T13:48:38.211Z,28.17
2023-01-02T13:51:12.948Z,23.92
2023-01-02T13:53:44.746Z,21.50
2023-01-02T13:56:22.903Z,23.73
2023-01-02T13:58:49.585Z,42.05
2023-01-02T14:01:22.600Z,30.85
2023-01-02T14:03:50.095Z,25.63
2023-01-02T14:06:34.485Z,26.92
2023-01-02T14:09:04.085Z,42.28
2023-01-02T14:11:55.311Z,45.70
2023-01-02T14:14:30.166Z,60.85
2023-01-02T14:17:11.659Z,47.08
2023-01-02T14:19:38.450Z,31.38
2023-01-02T14:22:12.620Z,26.15
2023-01-02T14:24:44.411Z,21.95
2023-01-02T14:27:19.933Z,35.28
2023-01-02T14:29:52.780Z,30.35
2023-01-02T14:32:44.342Z,28.65
2023-01-02T14:35:11.054Z,29.73
2023-01-02T14:37:47.878Z,26.25
2023-01-02T14:40:23.825Z,34.08
2023-01-02T14:43:14.978Z,34.70
2023-01-02T14:45:51.164Z,34.50
2023-01-02T14:48:30.652Z,37.50
2023-01-02T14:51:02.521Z,26.23
2023-01-02T14:53:55.275Z,31.13
2023-01-02T14:56:28.270Z,33.05
2023-01-02T14:58:56.042Z,27.38
2023-01-02T15:01:43.553Z,30.83
2023-01-02T15:04:23.355Z,25.05
2023-01-02T15:07:04.685Z,238.75
2023-01-02T15:09:45.507Z,321.27
2023-01-02T15:12:49.052Z,162.32
2023-01-02T15:15:26.176Z,60.78
2023-01-02T15:17:58.401Z,81.50
2023-01-02T15:20:31.051Z,128.05
2023-01-02T15:22:59.049Z,131.93
2023-01-02T15:25:37.340Z,88.38
2023-01-02T15:28:05.391Z,61.63
2023-01-02T15:30:40.113Z,50.70
2023-01-02T15:33:25.472Z,50.17
2023-01-02T15:36:18.178Z,148.90
2023-01-02T15:38:46.066Z,87.18
2023-01-02T15:41:20.069Z,55.08
2023-01-02T15:44:06.603Z,44.53
2023-01-02T15:46:34.417Z,82.82
2023-01-02T15:49:02.874Z,92.15
2023-01-02T15:51:40.468Z,83.72
2023-01-02T15:54:13.782Z,61.88
2023-01-02T15:56:41.504Z,75.10
2023-01-02T15:59:29.191Z,52.45
2023-01-02T16:04:24.506Z,39.42
2023-01-02T16:06:51.419Z,58.33
2023-01-02T16:09:29.254Z,66.63
2023-01-02T16:11:59.273Z,60.70
2023-01-02T16:14:37.838Z,62.47
2023-01-02T16:17:12.690Z,83.65
2023-01-02T16:19:44.837Z,112.95
2023-01-02T16:25:04.818Z,84.22
2023-01-02T16:27:41.965Z,60.17
2023-01-02T16:30:26.645Z,49.70
2023-01-02T16:32:53.422Z,55.88
2023-01-02T16:35:23.383Z,41.70
2023-01-02T16:38:20.327Z,43.60
2023-01-02T16:41:12.242Z,111.43
2023-01-02T16:43:46.282Z,144.98
2023-01-02T16:46:15.891Z,121.60
2023-01-02T16:48:44.180Z,106.35
2023-01-02T16:51:14.814Z,121.32
2023-01-02T16:53:43.336Z,246.40
2023-01-02T16:56:12.202Z,596.42
2023-01-02T16:58:39.133Z,392.63
2023-01-02T17:01:12.969Z,446.90
2023-01-02T17:03:39.815Z,339.70
2023-01-02T17:06:12.152Z,380.98
2023-01-02T17:08:38.842Z,393.02
2023-01-02T17:11:08.782Z,261.92
2023-01-02T17:13:35.404Z,435.48
2023-01-02T17:16:02.408Z,638.28
2023-01-02T17:18:29.106Z,235.30
2023-01-02T17:20:56.009Z,256.95
2023-01-02T17:23:22.703Z,210.25
2023-01-02T17:25:49.517Z,175.85
2023-01-02T17:28:16.828Z,479.65
2023-01-02T17:30:46.770Z,321.80
2023-01-02T17:33:13.712Z,232.00
2023-01-02T17:35:40.482Z,268.73
2023-01-02T17:38:07.492Z,248.25
2023-01-02T17:40:34.302Z,226.40
2023-01-02T17:43:04.499Z,283.10
2023-01-02T17:45:31.100Z,253.07
2023-01-02T17:48:03.624Z,231.20
2023-01-02T17:50:32.650Z,250.38
2023-01-02T17:53:02.343Z,236.82
2023-01-02T17:55:28.965Z,243.75
2023-01-02T17:57:55.866Z,246.52
2023-01-02T18:00:23.568Z,230.10
2023-01-02T18:02:52.619Z,208.40
2023-01-02T18:05:19.608Z,222.77
2023-01-02T18:07:46.359Z,146.65
2023-01-02T18:10:17.629Z,138.52
2023-01-02T18:12:49.317Z,143.63
2023-01-02T18:15:17.965Z,137.75
2023-01-02T18:17:45.003Z,136.32
2023-01-02T18:20:21.391Z,122.63
2023-01-02T18:22:50.841Z,113.82
2023-01-02T18:25:21.512Z,137.55
2023-01-02T18:27:48.580Z,150.93
2023-01-02T18:30:24.570Z,157.82
2023-01-02T18:33:06.897Z,134.85
2023-01-02T18:38:39.301Z,156.02
2023-01-02T18:41:37.152Z,115.15
2023-01-02T18:44:19.282Z,137.23
2023-01-02T18:47:02.074Z,100.90
2023-01-02T18:49:40.642Z,105.20
2023-01-02T18:52:10.463Z,85.57
2023-01-02T18:54:41.180Z,89.57
2023-01-02T18:57:16.297Z,91.50
2023-01-02T18:59:46.441Z,108.38
2023-01-02T19:02:54.624Z,101.78
2023-01-02T19:05:35.320Z,83.05
2023-01-02T19:08:08.049Z,83.07
2023-01-02T19:10:38.886Z,83.55
2023-01-02T19:13:16.304Z,77.25
2023-01-02T19:15:47.537Z,84.55
2023-01-02T19:18:14.173Z,75.30
2023-01-02T19:20:46.054Z,72.32
2023-01-02T19:23:21.841Z,75.50
2023-01-02T19:25:49.389Z,81.85
2023-01-02T19:28:24.495Z,73.70
2023-01-02T19:30:51.888Z,79.43
2023-01-02T19:33:42.710Z,89.15
2023-01-02T19:36:17.160Z,85.00
2023-01-02T19:38:46.108Z,82.20
2023-01-02T19:41:12.708Z,89.07
2023-01-02T19:43:39.592Z,82.97
2023-01-02T19:46:06.371Z,84.35
2023-01-02T19:48:33.546Z,82.15
2023-01-02T19:51:01.561Z,86.38
2023-01-02T19:53:28.246Z,86.40
2023-01-02T19:55:54.887Z,87.03
2023-01-02T19:58:21.615Z,85.10
2023-01-02T20:00:48.146Z,86.65
2023-01-02T20:03:15.022Z,84.88
2023-01-02T20:05:53.532Z,82.95
2023-01-02T20:08:20.280Z,86.22
2023-01-02T20:10:46.824Z,82.85
2023-01-02T20:13:13.522Z,86.28
2023-01-02T20:15:40.203Z,83.00
2023-01-02T20:18:09.136Z,83.93
2023-01-02T20:20:36.134Z,89.25
2023-01-02T20:23:02.886Z,85.47
2023-01-02T20:25:29.507Z,86.90
2023-01-02T20:27:56.714Z,86.70
2023-01-02T20:30:25.331Z,91.20
2023-01-02T20:32:55.786Z,103.38
2023-01-02T20:35:26.042Z,101.18
2023-01-02T20:37:52.718Z,105.78
2023-01-02T20:40:22.309Z,105.57
2023-01-02T20:42:49.098Z,109.65
2023-01-02T20:45:15.902Z,101.53
2023-01-02T20:47:42.565Z,103.40
2023-01-02T20:50:09.424Z,115.47
2023-01-02T20:52:36.172Z,112.47
2023-01-02T20:55:02.810Z,99.22
2023-01-02T20:57:29.685Z,105.07
2023-01-02T20:59:56.459Z,108.07
2023-01-02T21:02:24.309Z,95.97
2023-01-02T21:04:51.104Z,105.22
2023-01-02T21:07:17.812Z,103.78
2023-01-02T21:09:44.421Z,99.03
2023-01-02T21:12:31.147Z,98.03
2023-01-02T21:14:58.270Z,97.20
2023-01-02T21:17:25.052Z,96.78
2023-01-02T21:19:52.167Z,97.57
2023-01-02T21:22:18.756Z,85.32
2023-01-02T21:24:45.462Z,98.60
2023-01-02T21:27:13.463Z,88.57
2023-01-02T21:29:41.575Z,91.03
2023-01-02T21:32:08.176Z,87.85
2023-01-02T21:34:34.839Z,83.25
2023-01-02T21:39:15.456Z,90.57
2023-01-02T21:42:00.481Z,92.13
2023-01-02T21:44:27.093Z,84.72
2023-01-02T21:46:53.754Z,99.60
2023-01-02T21:49:21.233Z,82.03
2023-01-02T21:51:47.748Z,81.82
2023-01-02T21:54:14.422Z,76.70
2023-01-02T21:56:42.479Z,83.47
2023-01-02T21:59:09.048Z,80.75
2023-01-02T22:01:35.682Z,86.78
2023-01-02T22:04:02.854Z,93.05
2023-01-02T22:06:34.047Z,89.18
2023-01-02T22:09:01.750Z,91.20
2023-01-02T22:11:46.949Z,86.15
2023-01-02T22:14:13.617Z,87.05
2023-01-02T22:16:40.267Z,83.65
2023-01-02T22:19:06.981Z,81.80
2023-01-02T22:21:33.577Z,87.18
2023-01-02T22:24:00.314Z,92.78
2023-01-02T22:26:28.525Z,97.20
2023-01-02T22:28:58.683Z,82.47
2023-01-02T22:31:25.334Z,82.85
2023-01-02T22:33:54.577Z,79.45
2023-01-02T22:36:21.638Z,83.85
2023-01-02T22:39:17.463Z,87.15
2023-01-02T22:41:37.824Z,70.47
2023-01-02T22:44:06.964Z,74.05
2023-01-02T22:46:38.878Z,83.13
2023-01-02T22:49:05.813Z,122.40
2023-01-02T22:52:05.511Z,72.40
2023-01-02T22:54:23.938Z,136.73
2023-01-02T22:56:51.149Z,96.13
2023-01-02T22:59:17.728Z,66.85
2023-01-02T23:01:46.272Z,81.85
2023-01-02T23:04:24.696Z,113.00
2023-01-02T23:07:22.868Z,89.25
2023-01-02T23:09:39.369Z,99.85
2023-01-02T23:12:06.323Z,78.25
2023-01-02T23:14:32.936Z,105.53
2023-01-02T23:17:18.264Z,96.60
2023-01-02T23:19:44.973Z,75.10
2023-01-02T23:22:11.547Z,81.18
2023-01-02T23:24:38.675Z,91.22
2023-01-02T23:27:08.411Z,94.22
2023-01-02T23:29:35.706Z,81.40
2023-01-02T23:32:02.679Z,86.28
2023-01-02T23:34:30.248Z,85.90
2023-01-02T23:36:59.139Z,98.28
2023-01-02T23:39:29.355Z,89.72
2023-01-02T23:41:56.798Z,81.07
2023-01-02T23:44:24.314Z,81.03
2023-01-02T23:46:52.447Z,82.65
2023-01-02T23:49:19.297Z,91.82
2023-01-02T23:51:46.493Z,81.13
2023-01-02T23:54:15.437Z,86.78
2023-01-02T23:56:44.435Z,87.68
2023-01-02T23:59:14.776Z,92.18
